Time;durP1;ratioP1;P1;durP2;ratioP2;P2;SDS_P1;SDS_P2;PMS_P1;PMS_P2;Temp;Humidity;BMP_temperature;BMP_pressure;BME280_temperature;BME280_humidity;BME280_pressure;Samples;Min_cycle;Max_cycle;Signal;HPM_P1;HPM_P2
2022/12/15 00:40:29;;;;;;;40.65;20.95;;;;;;;0.03;97.94;97294.09;4981943;28;20563;-69
2022/12/15 00:42:54;;;;;;;50.58;23.92;;;;;;;-0.09;97.63;97295.78;4976697;28;20034;-67
2022/12/15 00:45:20;;;;;;;44.58;22.13;;;;;;;-0.18;97.64;97314.31;4999945;28;20042;-68
2022/12/15 00:47:45;;;;;;;42.78;20.02;;;;;;;-0.19;97.37;97310.97;4996703;28;20490;-68
2022/12/15 01:20:17;;;;;;;22.45;12.95;;;;;;;-0.82;100.00;97284.75;4989993;28;20085;-68
2022/12/15 01:22:53;;;;;;;23.02;12.70;;;;;;;-0.61;100.00;97321.53;4983753;28;20429;-68
2022/12/15 01:25:21;;;;;;;26.50;13.02;;;;;;;-0.52;100.00;97312.41;4967911;28;20030;-68
2022/12/15 01:27:47;;;;;;;22.40;11.82;;;;;;;-0.54;100.00;97310.91;4972999;28;20509;-68
2022/12/15 01:30:15;;;;;;;22.08;12.75;;;;;;;-0.55;100.00;97314.38;4995737;28;20125;-68
2022/12/15 01:32:40;;;;;;;22.63;11.80;;;;;;;-0.59;100.00;97314.56;4983721;28;20768;-67
2022/12/15 01:35:07;;;;;;;18.25;10.93;;;;;;;-0.53;100.00;97315.06;5012573;28;20042;-68
2022/12/15 01:37:33;;;;;;;17.33;11.18;;;;;;;-0.67;100.00;97309.19;5013743;28;20038;-68
2022/12/15 01:42:42;;;;;;;17.30;10.13;;;;;;;-0.51;98.89;97348.97;4986421;28;20037;-68
2022/12/15 01:45:23;;;;;;;16.70;11.00;;;;;;;-0.48;99.59;97341.09;4996850;28;20038;-68
2022/12/15 01:48:09;;;;;;;20.33;10.23;;;;;;;-0.63;100.00;97343.00;4986461;28;20524;-68
2022/12/15 01:50:40;;;;;;;18.25;10.55;;;;;;;-0.56;99.94;97364.63;5013769;28;20042;-68
2022/12/15 01:53:05;;;;;;;23.85;12.65;;;;;;;-0.50;99.05;97359.09;4996692;28;20030;-68
2022/12/15 01:55:31;;;;;;;24.88;13.18;;;;;;;-0.33;98.71;97357.94;5007207;28;20034;-68
2022/12/15 01:58:01;;;;;;;19.35;12.02;;;;;;;-0.80;98.58;97318.63;4986515;28;20034;-68
2022/12/15 02:00:27;;;;;;;19.35;9.98;;;;;;;-0.70;100.00;97357.09;4991344;28;20038;-67
2022/12/15 02:02:53;;;;;;;18.27;10.48;;;;;;;-0.76;100.00;97358.34;4982075;28;20092;-68
2022/12/15 02:05:19;;;;;;;17.52;10.40;;;;;;;-0.46;98.17;97354.59;4951997;28;20038;-68
2022/12/15 02:07:45;;;;;;;18.45;11.18;;;;;;;-0.45;98.01;97335.78;4993644;28;20046;-68
2022/12/15 02:10:11;;;;;;;18.48;10.20;;;;;;;-0.45;97.82;97328.13;4978658;28;20587;-68
2022/12/15 02:12:40;;;;;;;17.67;11.10;;;;;;;-0.76;97.25;97261.34;4976238;28;21366;-67
2022/12/15 02:15:10;;;;;;;18.90;11.32;;;;;;;-0.40;96.77;97315.88;4998340;28;20129;-67
2022/12/15 02:17:46;;;;;;;20.30;10.77;;;;;;;-0.36;97.10;97309.59;4992218;28;20105;-69
2022/12/15 02:20:31;;;;;;;16.25;9.77;;;;;;;-0.44;97.06;97316.97;4979099;28;20057;-68
2022/12/15 02:23:15;;;;;;;16.05;9.85;;;;;;;-0.53;97.54;97307.41;4985509;28;20029;-67
2022/12/15 02:26:07;;;;;;;16.50;9.48;;;;;;;-0.72;95.69;97282.34;4980776;28;20070;-67
2022/12/15 02:28:53;;;;;;;19.27;9.90;;;;;;;-0.57;96.78;97328.97;4975851;28;20030;-67
2022/12/15 02:31:49;;;;;;;17.05;9.98;;;;;;;-0.56;97.72;97325.53;4977682;28;20109;-67
2022/12/15 02:34:36;;;;;;;15.88;9.20;;;;;;;-0.51;97.26;97328.53;4956445;28;20505;-67
2022/12/15 02:37:08;;;;;;;15.90;9.55;;;;;;;-0.54;96.82;97316.81;4981445;28;20132;-68
2022/12/15 02:39:33;;;;;;;15.73;9.63;;;;;;;-0.75;97.58;97300.44;4999834;28;20084;-67
2022/12/15 02:41:58;;;;;;;15.70;9.55;;;;;;;-0.65;96.32;97329.53;4977943;28;20038;-68
2022/12/15 02:44:42;;;;;;;16.75;10.35;;;;;;;-0.68;97.34;97345.03;4992794;28;20698;-67
2022/12/15 02:47:32;;;;;;;23.30;12.77;;;;;;;-0.66;98.24;97358.50;4981321;28;20038;-68
2022/12/15 02:50:15;;;;;;;22.27;11.55;;;;;;;-0.80;98.30;97349.25;4979739;28;20594;-68
2022/12/15 02:53:02;;;;;;;20.52;11.57;;;;;;;-0.65;97.90;97344.84;4981983;28;20539;-68
2022/12/15 02:55:52;;;;;;;17.10;9.93;;;;;;;-0.94;96.88;97290.69;4978783;28;20032;-68
2022/12/15 02:58:35;;;;;;;16.08;8.93;;;;;;;-0.69;96.98;97349.34;4978370;28;20046;-69
2022/12/15 03:01:25;;;;;;;26.08;14.00;;;;;;;-0.81;97.48;97347.63;4981793;28;20026;-67
2022/12/15 03:03:51;;;;;;;29.63;14.60;;;;;;;-0.77;98.06;97351.59;4972046;28;20046;-67
2022/12/15 03:06:17;;;;;;;25.35;13.63;;;;;;;-0.92;98.90;97366.19;4991255;28;20478;-69
2022/12/15 03:08:43;;;;;;;27.00;13.10;;;;;;;-1.04;100.00;97393.38;4978476;28;20037;-69
2022/12/15 03:11:08;;;;;;;18.50;11.20;;;;;;;-0.86;99.42;97393.88;4964922;28;20026;-68
2022/12/15 03:13:34;;;;;;;19.20;11.88;;;;;;;-1.05;98.16;97335.59;4995210;28;20034;-69
2022/12/15 03:16:00;;;;;;;18.25;11.05;;;;;;;-1.33;98.92;97317.94;4996613;28;20030;-68
2022/12/15 03:18:25;;;;;;;21.98;11.55;;;;;;;-0.93;100.00;97371.41;4996784;28;20069;-69
2022/12/15 03:20:52;;;;;;;19.27;10.93;;;;;;;-0.86;100.00;97383.69;4995959;28;20581;-68
2022/12/15 03:23:18;;;;;;;19.25;10.40;;;;;;;-0.86;99.58;97370.91;4981491;28;20061;-68
2022/12/15 03:25:46;;;;;;;19.83;10.95;;;;;;;-1.17;99.97;97336.41;5011397;28;20129;-69
2022/12/15 03:28:12;;;;;;;20.30;10.00;;;;;;;-0.78;99.42;97383.16;4974743;28;20515;-69
2022/12/15 03:30:37;;;;;;;18.95;10.20;;;;;;;-0.88;99.59;97384.69;4994334;28;20030;-69
2022/12/15 03:33:03;;;;;;;16.88;9.35;;;;;;;-1.12;99.83;97395.59;4976832;28;20061;-69
2022/12/15 03:35:29;;;;;;;16.80;9.10;;;;;;;-1.12;99.89;97387.13;4974807;28;20027;-68
2022/12/15 03:37:54;;;;;;;15.27;9.10;;;;;;;-1.18;98.61;97381.53;5004099;28;20057;-68
2022/12/15 03:40:20;;;;;;;13.68;8.85;;;;;;;-1.04;99.00;97390.81;4967308;28;20026;-68
2022/12/15 03:42:48;;;;;;;20.25;10.80;;;;;;;-0.89;97.78;97372.84;4982315;28;20042;-68
2022/12/15 03:45:19;;;;;;;27.35;12.95;;;;;;;-0.95;97.73;97388.56;4995801;28;20058;-68
2022/12/15 03:47:45;;;;;;;23.48;11.73;;;;;;;-0.81;98.52;97396.91;4980530;28;20517;-68
2022/12/15 03:50:12;;;;;;;25.02;11.85;;;;;;;-0.76;97.78;97394.06;4980545;28;20037;-69
2022/12/15 03:52:38;;;;;;;21.92;11.90;;;;;;;-0.72;97.75;97394.69;4981403;28;20041;-68
2022/12/15 03:55:03;;;;;;;18.98;10.63;;;;;;;-0.89;97.43;97388.16;4998208;28;20026;-68
2022/12/15 03:57:29;;;;;;;19.85;10.70;;;;;;;-0.84;97.95;97392.03;4983821;28;20054;-68
2022/12/15 03:59:55;;;;;;;16.23;9.45;;;;;;;-0.81;98.15;97391.81;4993852;28;20507;-68
2022/12/15 04:02:20;;;;;;;14.88;8.82;;;;;;;-0.82;97.38;97394.50;4999387;28;20871;-68
2022/12/15 04:04:47;;;;;;;16.48;8.68;;;;;;;-0.87;96.35;97386.31;4983071;28;20038;-68
2022/12/15 04:07:12;;;;;;;14.70;9.02;;;;;;;-0.82;97.55;97409.81;4991188;28;20026;-68
2022/12/15 04:09:38;;;;;;;14.90;8.35;;;;;;;-0.92;97.52;97399.38;4980050;28;20035;-68
2022/12/15 04:12:03;;;;;;;19.15;10.07;;;;;;;-1.12;97.30;97352.22;4981414;28;20367;-68
2022/12/15 04:14:29;;;;;;;16.30;9.02;;;;;;;-0.87;97.38;97384.56;4993618;28;20066;-68
2022/12/15 04:16:55;;;;;;;24.15;11.13;;;;;;;-0.90;97.28;97381.41;4998111;28;20058;-68
2022/12/15 04:22:04;;;;;;;20.00;10.65;;;;;;;-0.95;98.44;97404.69;4983250;28;20473;-68
2022/12/15 05:32:52;;;;;;;9.45;5.53;;;;;;;0.62;100.00;97380.16;4979339;28;20504;-68
2022/12/15 05:35:17;;;;;;;7.47;4.63;;;;;;;0.59;100.00;97382.97;4996874;28;20027;-67
2022/12/15 05:37:43;;;;;;;8.23;4.78;;;;;;;0.63;100.00;97379.25;5005063;28;20034;-67
2022/12/15 05:40:08;;;;;;;8.82;5.45;;;;;;;0.66;100.00;97402.06;4979678;28;20113;-67
2022/12/15 05:42:34;;;;;;;7.50;4.47;;;;;;;0.69;100.00;97383.91;4981277;28;20106;-67
2022/12/15 05:44:59;;;;;;;9.73;5.68;;;;;;;0.75;100.00;97394.50;4993034;28;20081;-68
2022/12/15 05:47:25;;;;;;;10.40;5.05;;;;;;;0.75;100.00;97391.13;4991443;28;20037;-68
2022/12/15 05:49:50;;;;;;;8.88;4.95;;;;;;;0.79;100.00;97395.09;4983616;28;20101;-67
2022/12/15 05:52:16;;;;;;;7.82;4.75;;;;;;;0.85;100.00;97398.94;4979291;28;20045;-68
2022/12/15 05:54:42;;;;;;;7.40;4.30;;;;;;;0.84;100.00;97393.03;4964338;28;20033;-68
2022/12/15 05:57:08;;;;;;;7.55;3.80;;;;;;;0.87;100.00;97392.78;4979108;28;20034;-67
2022/12/15 05:59:33;;;;;;;7.35;4.30;;;;;;;0.90;100.00;97402.78;4981138;28;20026;-68
2022/12/15 06:01:58;;;;;;;8.38;4.55;;;;;;;0.79;100.00;97392.53;4976671;28;20065;-68
2022/12/15 06:04:24;;;;;;;8.93;4.60;;;;;;;0.92;100.00;97416.28;4996284;28;20033;-67
2022/12/15 06:06:49;;;;;;;6.68;4.05;;;;;;;1.00;100.00;97409.78;4966699;28;20503;-67
2022/12/15 06:09:15;;;;;;;11.75;4.28;;;;;;;0.99;100.00;97405.63;4978479;28;20045;-67
2022/12/15 06:11:40;;;;;;;8.70;4.28;;;;;;;1.01;100.00;97412.22;4979871;28;20025;-67
2022/12/15 06:14:06;;;;;;;7.38;4.20;;;;;;;1.03;100.00;97417.25;4976213;28;20571;-67
2022/12/15 06:16:32;;;;;;;8.02;4.18;;;;;;;1.03;100.00;97410.38;4979464;28;20060;-67
2022/12/15 06:18:59;;;;;;;8.15;4.63;;;;;;;0.99;100.00;97424.34;4977054;28;20388;-68
2022/12/15 06:21:27;;;;;;;7.93;4.22;;;;;;;1.10;100.00;97419.22;4956953;28;20030;-68
2022/12/15 06:23:54;;;;;;;8.20;4.47;;;;;;;1.03;100.00;97422.38;4973703;28;20493;-68
2022/12/15 06:26:23;;;;;;;8.02;4.60;;;;;;;1.14;100.00;97432.63;4993480;28;20141;-69
2022/12/15 06:28:49;;;;;;;9.25;4.28;;;;;;;1.07;100.00;97431.44;4969634;28;20037;-69
2022/12/15 06:31:16;;;;;;;8.20;4.03;;;;;;;1.13;100.00;97436.09;4974391;28;20038;-69
2022/12/15 06:33:42;;;;;;;8.38;4.20;;;;;;;0.89;98.81;97397.78;4965920;28;20062;-68
2022/12/15 06:36:10;;;;;;;7.50;3.90;;;;;;;1.23;99.09;97442.19;4977475;28;20125;-69
2022/12/15 06:38:36;;;;;;;6.45;3.95;;;;;;;1.23;97.82;97446.50;4975341;28;20042;-68
2022/12/15 06:41:03;;;;;;;7.30;3.63;;;;;;;1.26;97.63;97439.41;5003742;28;20454;-69
2022/12/15 06:43:29;;;;;;;6.90;3.80;;;;;;;1.06;97.36;97393.97;4972611;28;20034;-68
2022/12/15 06:45:55;;;;;;;6.75;3.90;;;;;;;1.34;96.58;97444.75;4956300;28;20041;-68
2022/12/15 06:48:21;;;;;;;7.82;3.83;;;;;;;1.39;95.97;97443.56;4971233;28;20097;-68
2022/12/15 06:50:47;;;;;;;8.13;4.07;;;;;;;1.42;95.67;97446.72;4956738;28;20470;-68
2022/12/15 06:53:13;;;;;;;7.32;3.85;;;;;;;1.42;96.05;97444.16;4993259;28;20041;-68
2022/12/15 06:55:40;;;;;;;7.20;3.38;;;;;;;1.46;96.25;97453.25;4976852;28;20038;-68
2022/12/15 06:58:05;;;;;;;8.05;3.80;;;;;;;1.51;96.52;97463.16;4975409;28;20041;-68
2022/12/15 07:00:33;;;;;;;7.00;3.35;;;;;;;1.59;95.98;97462.56;4974121;28;20038;-68
2022/12/15 07:02:58;;;;;;;6.20;3.30;;;;;;;1.57;96.12;97462.69;4994596;28;20030;-68
2022/12/15 07:05:24;;;;;;;8.10;4.25;;;;;;;1.63;96.98;97469.09;4978466;28;20034;-68
2022/12/15 07:07:50;;;;;;;7.07;3.90;;;;;;;1.71;96.92;97479.56;4988379;28;20035;-68
2022/12/15 07:10:16;;;;;;;8.32;4.00;;;;;;;1.73;96.00;97493.09;4973756;28;20664;-68
2022/12/15 07:12:42;;;;;;;6.90;3.67;;;;;;;1.45;96.05;97455.94;4960827;28;20549;-68
2022/12/15 07:15:08;;;;;;;7.45;3.92;;;;;;;1.61;95.62;97494.03;4993026;28;20525;-68
2022/12/15 07:17:36;;;;;;;6.53;3.40;;;;;;;1.52;95.87;97492.97;4975980;28;20034;-68
2022/12/15 07:20:05;;;;;;;6.80;3.58;;;;;;;1.70;95.63;97516.41;4973008;28;20050;-68
2022/12/15 07:22:31;;;;;;;6.25;3.42;;;;;;;1.69;95.89;97523.25;4983212;28;20030;-68
2022/12/15 07:24:57;;;;;;;7.43;3.67;;;;;;;1.78;95.59;97526.88;4974513;28;20034;-68
2022/12/15 07:27:22;;;;;;;6.78;3.78;;;;;;;1.77;94.08;97524.44;4975688;28;20026;-68
2022/12/15 07:29:48;;;;;;;8.55;3.22;;;;;;;1.76;94.09;97531.31;5008025;28;20121;-66
2022/12/15 07:32:14;;;;;;;7.68;3.40;;;;;;;1.52;94.80;97478.41;4988654;28;20033;-67
2022/12/15 07:34:40;;;;;;;7.63;3.67;;;;;;;1.58;93.87;97500.19;5006402;28;20066;-66
2022/12/15 07:37:06;;;;;;;7.68;3.35;;;;;;;1.81;93.75;97544.59;4991909;28;20026;-67
2022/12/15 07:39:32;;;;;;;7.18;3.33;;;;;;;1.48;92.90;97507.75;4986276;28;20030;-66
2022/12/15 07:41:57;;;;;;;6.78;3.50;;;;;;;1.83;93.20;97576.06;4988129;28;20405;-67
2022/12/15 07:44:23;;;;;;;8.88;3.85;;;;;;;1.79;92.73;97568.69;4976506;28;20027;-67
2022/12/15 07:46:48;;;;;;;7.50;3.55;;;;;;;1.81;93.52;97577.91;4989237;28;20548;-67
2022/12/15 07:49:15;;;;;;;7.70;3.65;;;;;;;1.88;92.51;97579.09;4974897;28;20760;-67
2022/12/15 07:51:41;;;;;;;7.32;3.40;;;;;;;1.94;92.59;97574.44;4971421;28;20555;-67
2022/12/15 07:54:09;;;;;;;6.70;3.17;;;;;;;1.99;92.62;97585.13;4964639;28;20066;-67
2022/12/15 07:56:35;;;;;;;6.88;3.67;;;;;;;2.01;92.92;97578.97;4954733;28;20022;-67
2022/12/15 07:59:00;;;;;;;7.32;3.70;;;;;;;2.04;92.42;97576.16;4972033;28;20046;-67
2022/12/15 08:01:27;;;;;;;6.18;3.20;;;;;;;2.07;93.28;97578.50;4956256;28;20734;-66
2022/12/15 08:03:52;;;;;;;6.10;3.33;;;;;;;2.04;94.17;97580.47;4947819;28;20048;-67
2022/12/15 08:06:18;;;;;;;7.90;3.90;;;;;;;2.04;94.75;97583.03;4973038;28;20049;-66
2022/12/15 08:08:44;;;;;;;6.68;3.40;;;;;;;2.03;94.34;97571.19;4972319;28;20173;-67
2022/12/15 08:11:12;;;;;;;6.47;3.50;;;;;;;2.09;95.08;97576.63;4972913;28;20026;-68
2022/12/15 08:13:38;;;;;;;7.70;3.58;;;;;;;2.13;94.17;97561.84;4977815;28;20881;-67
2022/12/15 08:16:04;;;;;;;7.28;3.63;;;;;;;2.29;91.72;97561.47;4956636;28;20026;-67
2022/12/15 08:18:29;;;;;;;5.93;2.95;;;;;;;2.35;90.60;97562.75;4986142;28;20038;-67
2022/12/15 08:20:55;;;;;;;7.78;3.65;;;;;;;2.06;91.58;97492.28;4972072;28;20520;-67
2022/12/15 08:23:20;;;;;;;6.60;3.38;;;;;;;2.23;91.53;97502.97;4971095;28;20045;-67
2022/12/15 08:25:46;;;;;;;6.40;3.15;;;;;;;2.30;92.94;97509.25;4975953;28;20030;-67
2022/12/15 08:28:12;;;;;;;7.72;3.60;;;;;;;2.33;91.92;97497.94;4975193;28;20489;-67
2022/12/15 08:30:37;;;;;;;7.50;3.40;;;;;;;2.45;90.12;97517.50;4976649;28;20145;-67
2022/12/15 08:33:03;;;;;;;5.68;3.00;;;;;;;2.43;88.25;97514.25;4973245;28;20038;-67
2022/12/15 08:35:29;;;;;;;9.25;3.95;;;;;;;2.42;87.47;97521.09;4966280;28;20040;-66
2022/12/15 08:37:54;;;;;;;6.80;3.22;;;;;;;2.46;85.70;97531.94;4973294;28;20104;-67
2022/12/15 08:40:20;;;;;;;11.10;4.28;;;;;;;2.42;86.47;97530.56;4988803;28;21383;-66
2022/12/15 08:42:45;;;;;;;9.20;4.03;;;;;;;2.43;86.86;97530.44;4990997;28;20115;-66
2022/12/15 08:45:11;;;;;;;13.85;4.10;;;;;;;2.45;87.71;97520.88;4975638;28;20030;-67
2022/12/15 08:47:37;;;;;;;7.78;3.60;;;;;;;2.46;88.30;97542.19;4976084;28;20340;-66
2022/12/15 08:50:05;;;;;;;8.13;3.75;;;;;;;2.50;88.91;97544.44;4991108;28;20074;-65
2022/12/15 08:52:30;;;;;;;7.65;3.60;;;;;;;2.48;89.58;97561.69;4976190;28;20560;-67
2022/12/15 08:54:56;;;;;;;6.53;3.45;;;;;;;2.49;90.54;97576.13;4970452;28;20033;-67
2022/12/15 08:57:21;;;;;;;8.50;3.67;;;;;;;2.50;91.28;97572.66;4971050;28;20127;-67
2022/12/15 08:59:47;;;;;;;7.38;3.42;;;;;;;2.50;91.40;97574.38;4974969;28;20868;-66
2022/12/15 09:02:12;;;;;;;7.72;3.33;;;;;;;2.41;89.85;97572.53;4950335;28;20041;-66
2022/12/15 09:04:39;;;;;;;6.32;3.10;;;;;;;2.51;89.39;97568.31;4968305;28;20030;-65
2022/12/15 09:07:05;;;;;;;10.13;3.80;;;;;;;2.49;90.30;97571.00;4989355;28;20085;-67
2022/12/15 09:09:30;;;;;;;7.78;3.70;;;;;;;2.46;90.90;97573.84;4966616;28;20034;-68
2022/12/15 09:11:56;;;;;;;7.35;3.63;;;;;;;2.47;90.70;97587.47;4965815;28;20417;-66
2022/12/15 09:14:21;;;;;;;7.78;3.88;;;;;;;2.38;90.08;97576.16;4975405;28;20057;-66
2022/12/15 09:16:47;;;;;;;10.00;3.92;;;;;;;2.44;90.76;97591.06;4958479;28;20027;-66
2022/12/15 09:19:12;;;;;;;6.72;3.30;;;;;;;2.43;90.78;97575.81;4957784;28;20512;-66
2022/12/15 09:21:38;;;;;;;7.07;3.83;;;;;;;2.17;90.25;97534.19;4958502;28;20496;-66
2022/12/15 09:24:04;;;;;;;9.38;3.83;;;;;;;2.45;90.11;97582.44;4974207;28;20073;-67
2022/12/15 09:26:31;;;;;;;8.15;3.72;;;;;;;2.54;90.79;97585.22;4991215;28;20038;-67
2022/12/15 09:28:57;;;;;;;10.27;4.40;;;;;;;2.55;91.16;97577.41;4968897;28;20034;-67
2022/12/15 09:31:27;;;;;;;10.18;4.38;;;;;;;2.61;91.43;97571.81;4974962;28;20441;-66
2022/12/15 09:33:54;;;;;;;8.48;3.75;;;;;;;2.41;90.25;97534.88;4958278;28;20034;-67
2022/12/15 09:36:20;;;;;;;6.78;3.40;;;;;;;2.67;88.09;97567.94;4953960;28;20034;-67
2022/12/15 09:38:45;;;;;;;9.73;4.22;;;;;;;2.64;91.27;97561.28;4987734;28;20080;-67
2022/12/15 09:41:14;;;;;;;9.52;5.35;;;;;;;2.72;91.86;97570.97;4965288;28;20909;-67
2022/12/15 09:44:04;;;;;;;13.88;5.97;;;;;;;2.62;92.73;97567.50;4973290;28;20117;-67
2022/12/15 09:46:59;;;;;;;9.23;5.45;;;;;;;2.62;93.12;97564.94;4974181;28;20113;-66
2022/12/15 09:49:49;;;;;;;10.82;5.95;;;;;;;2.72;92.52;97562.44;4975069;28;20038;-67
2022/12/15 09:52:18;;;;;;;12.57;6.00;;;;;;;2.78;92.82;97557.66;4967511;28;20025;-66
2022/12/15 09:54:45;;;;;;;9.90;5.20;;;;;;;2.64;92.81;97552.78;4958986;28;20609;-67
2022/12/15 09:57:39;;;;;;;12.00;6.70;;;;;;;2.67;92.53;97549.97;4975769;28;20500;-67
2022/12/15 10:00:24;;;;;;;13.73;6.40;;;;;;;2.81;91.60;97548.88;4953012;28;20129;-66
2022/12/15 10:03:08;;;;;;;13.15;6.40;;;;;;;2.52;91.69;97505.81;5003211;28;20121;-66
2022/12/15 10:05:49;;;;;;;8.95;5.68;;;;;;;2.79;92.09;97551.59;4976594;28;20038;-66
2022/12/15 10:08:15;;;;;;;9.82;6.00;;;;;;;2.82;92.75;97553.09;4975558;28;20073;-66
2022/12/15 10:10:44;;;;;;;11.77;7.40;;;;;;;2.75;91.67;97564.78;4967967;28;20121;-67
2022/12/15 10:13:16;;;;;;;9.50;6.13;;;;;;;2.54;91.96;97523.63;4974575;28;20026;-65
2022/12/15 10:16:04;;;;;;;15.43;6.35;;;;;;;2.88;92.30;97573.13;4965784;28;20031;-66
2022/12/15 10:18:48;;;;;;;12.25;6.95;;;;;;;2.96;92.10;97575.13;4974148;28;20795;-67
2022/12/15 10:21:14;;;;;;;11.60;6.18;;;;;;;2.93;92.26;97576.16;4976158;28;20112;-67
2022/12/15 10:23:40;;;;;;;11.30;6.20;;;;;;;2.89;92.09;97582.47;4973065;28;20023;-66
2022/12/15 10:26:22;;;;;;;10.93;6.10;;;;;;;2.95;91.02;97588.88;4974087;28;20609;-66
2022/12/15 10:29:09;;;;;;;9.57;6.10;;;;;;;3.00;91.23;97584.19;4989219;28;20038;-67
2022/12/15 10:31:45;;;;;;;9.02;5.50;;;;;;;2.97;91.82;97590.38;4973893;28;20044;-67
2022/12/15 10:34:22;;;;;;;9.75;5.43;;;;;;;2.68;92.31;97547.31;4973549;28;20480;-67
2022/12/15 10:36:52;;;;;;;10.30;5.60;;;;;;;2.97;92.72;97579.28;4973263;28;20058;-67
2022/12/15 10:39:19;;;;;;;10.43;6.53;;;;;;;3.01;92.19;97575.53;4957303;28;20536;-67
2022/12/15 10:41:45;;;;;;;11.57;5.75;;;;;;;3.00;91.11;97561.88;4974976;28;20030;-66
2022/12/15 10:44:24;;;;;;;9.75;6.05;;;;;;;2.95;90.53;97535.75;4974611;28;20042;-66
2022/12/15 10:47:15;;;;;;;11.77;5.93;;;;;;;3.08;90.63;97545.84;4971911;28;20034;-67
2022/12/15 10:49:40;;;;;;;13.52;6.97;;;;;;;2.85;91.41;97504.06;4965747;28;20034;-67
2022/12/15 10:52:15;;;;;;;14.52;9.48;;;;;;;3.09;91.63;97542.38;4974375;28;20035;-67
2022/12/15 10:54:47;;;;;;;11.13;6.85;;;;;;;3.21;93.30;97551.66;4957832;28;20026;-66
2022/12/15 10:57:18;;;;;;;13.55;7.65;;;;;;;2.78;91.94;97483.19;4974288;28;20117;-66
2022/12/15 10:59:44;;;;;;;10.25;6.00;;;;;;;3.20;91.27;97557.72;4972232;28;20018;-65
2022/12/15 11:02:32;;;;;;;12.02;6.22;;;;;;;3.27;92.66;97568.31;4948627;28;20076;-66
2022/12/15 11:04:58;;;;;;;9.70;6.20;;;;;;;3.25;92.52;97583.06;4990128;28;20037;-65
2022/12/15 11:07:30;;;;;;;9.05;5.85;;;;;;;3.25;92.56;97583.06;4969545;28;20765;-65
2022/12/15 11:10:12;;;;;;;9.65;5.70;;;;;;;3.25;93.25;97576.16;4973939;28;20392;-66
2022/12/15 11:12:52;;;;;;;13.60;5.70;;;;;;;3.23;93.78;97561.78;4949335;28;20386;-66
2022/12/15 11:15:21;;;;;;;10.45;5.50;;;;;;;3.29;94.44;97566.44;5002348;28;20034;-66
2022/12/15 11:17:51;;;;;;;12.77;6.15;;;;;;;3.25;93.78;97583.06;4972785;28;20037;-66
2022/12/15 11:20:26;;;;;;;;;;;;;;;3.24;92.03;97566.81;4972274;28;20034;-66
2022/12/15 11:22:59;;;;;;;11.02;5.97;;;;;;;3.22;92.77;97550.69;4967344;28;20389;-66
2022/12/15 11:25:41;;;;;;;11.02;6.55;;;;;;;3.15;92.58;97544.44;4956897;28;20045;-66
2022/12/15 11:28:14;;;;;;;11.27;6.90;;;;;;;3.19;91.47;97543.22;4979522;28;20505;-66
2022/12/15 11:30:51;;;;;;;9.57;6.35;;;;;;;2.97;91.36;97491.97;4973096;28;20038;-66
2022/12/15 11:33:17;;;;;;;11.85;6.97;;;;;;;3.32;91.55;97534.53;4988928;28;20030;-66
2022/12/15 11:35:45;;;;;;;13.20;7.00;;;;;;;3.33;92.30;97539.56;4947648;28;20562;-66
2022/12/15 11:38:28;;;;;;;12.13;6.82;;;;;;;3.25;90.72;97542.75;4975905;28;20035;-66
2022/12/15 11:40:57;;;;;;;12.05;7.75;;;;;;;3.30;91.49;97544.13;4972611;28;20034;-66
2022/12/15 11:43:34;;;;;;;14.90;8.63;;;;;;;3.29;91.17;97543.31;4958076;28;20033;-66
2022/12/15 11:46:12;;;;;;;16.58;8.77;;;;;;;3.31;90.81;97538.06;4972037;28;20042;-66
2022/12/15 11:49:11;;;;;;;14.48;8.85;;;;;;;3.38;90.83;97545.13;4971646;28;20104;-66
2022/12/15 11:51:43;;;;;;;13.15;7.93;;;;;;;3.38;88.33;97544.31;4988563;28;20030;-66
2022/12/15 11:54:21;;;;;;;13.10;8.05;;;;;;;3.35;90.21;97545.38;4963064;28;20046;-66
2022/12/15 11:57:01;;;;;;;13.18;7.90;;;;;;;3.26;90.44;97515.28;4970119;28;20308;-67
2022/12/15 11:59:26;;;;;;;;;;;;;;;3.39;90.11;97535.66;4990868;28;20119;-66
2022/12/15 12:02:00;;;;;;;11.82;7.05;;;;;;;2.60;90.62;97402.53;4976962;28;20020;-66
2022/12/15 12:04:47;;;;;;;13.75;8.02;;;;;;;3.43;90.27;97519.03;4974417;28;20045;-66
2022/12/15 12:07:19;;;;;;;13.48;7.50;;;;;;;3.38;87.77;97506.59;4975511;28;20112;-66
2022/12/15 12:10:21;;;;;;;12.65;7.78;;;;;;;3.53;86.82;97501.94;4975362;28;20030;-66
2022/12/15 12:13:18;;;;;;;13.18;7.03;;;;;;;3.52;86.27;97487.44;4966116;28;20128;-65
2022/12/15 12:15:56;;;;;;;14.02;7.95;;;;;;;3.54;86.09;97470.16;4975196;28;20470;-66
2022/12/15 12:18:30;;;;;;;15.20;7.15;;;;;;;3.57;87.11;97458.78;4966688;28;20026;-66
2022/12/15 12:20:59;;;;;;;13.07;7.38;;;;;;;3.61;86.13;97442.16;4986696;28;20113;-66
2022/12/15 12:23:39;;;;;;;14.97;7.50;;;;;;;3.56;86.13;97434.84;4975258;28;20037;-66
2022/12/15 12:26:09;;;;;;;11.50;6.57;;;;;;;3.59;86.11;97419.16;4978650;28;20449;-66
2022/12/15 12:28:50;;;;;;;10.32;6.68;;;;;;;3.57;85.62;97407.38;4975803;28;20057;-66
2022/12/15 12:31:32;;;;;;;10.38;6.20;;;;;;;3.73;85.75;97407.72;4975788;28;20097;-65
2022/12/15 12:34:02;;;;;;;11.48;6.50;;;;;;;3.62;86.06;97379.53;4953577;28;20058;-66
2022/12/15 12:36:27;;;;;;;9.98;5.93;;;;;;;3.69;86.56;97384.94;4973698;28;20660;-66
2022/12/15 12:38:55;;;;;;;9.40;5.32;;;;;;;3.77;86.75;97375.63;4990622;28;20041;-65
2022/12/15 12:41:29;;;;;;;9.73;5.97;;;;;;;3.77;85.52;97361.97;4967392;28;20045;-68
2022/12/15 12:43:57;;;;;;;8.93;5.45;;;;;;;3.70;83.14;97374.53;4976763;28;20034;-67
2022/12/15 12:46:25;;;;;;;9.07;5.10;;;;;;;3.76;82.60;97378.34;4951879;28;20149;-67
2022/12/15 12:49:06;;;;;;;8.88;4.97;;;;;;;3.72;82.60;97377.78;4975702;28;20030;-67
2022/12/15 12:51:33;;;;;;;10.85;4.88;;;;;;;3.75;82.17;97382.69;4971009;28;20477;-67
2022/12/15 12:53:59;;;;;;;9.32;4.65;;;;;;;3.65;83.57;97380.09;4971179;28;20037;-64
2022/12/15 12:56:30;;;;;;;8.75;4.28;;;;;;;3.65;85.84;97392.09;4974229;28;20157;-66
2022/12/15 12:58:56;;;;;;;8.10;5.10;;;;;;;3.57;86.83;97387.63;4972198;28;20100;-65
2022/12/15 13:01:32;;;;;;;8.70;4.75;;;;;;;3.63;86.29;97392.25;4965136;28;20026;-66
2022/12/15 13:04:12;;;;;;;10.35;6.55;;;;;;;3.55;89.20;97393.84;4999053;28;20803;-66
2022/12/15 13:06:38;;;;;;;13.20;7.25;;;;;;;3.40;92.22;97390.84;4975626;28;20098;-66
2022/12/15 13:09:23;;;;;;;11.68;7.00;;;;;;;3.20;96.23;97400.22;4981864;28;20124;-67
2022/12/15 13:11:52;;;;;;;14.43;8.25;;;;;;;2.80;98.62;97354.72;4994509;28;20030;-67
2022/12/15 13:14:20;;;;;;;14.20;9.10;;;;;;;2.85;100.00;97380.84;4986487;28;20081;-66
2022/12/15 13:16:46;;;;;;;13.82;8.43;;;;;;;2.84;100.00;97403.09;4978686;28;20112;-66
2022/12/15 13:19:13;;;;;;;11.40;8.02;;;;;;;2.73;100.00;97404.94;4981946;28;20461;-65
2022/12/15 13:21:42;;;;;;;14.15;8.68;;;;;;;2.29;100.00;97354.50;4985361;28;20030;-68
2022/12/15 13:24:31;;;;;;;16.93;9.10;;;;;;;2.52;100.00;97412.59;4982220;28;20034;-69
2022/12/15 13:27:03;;;;;;;12.13;8.60;;;;;;;2.16;100.00;97374.38;5014501;28;20384;-68
2022/12/15 13:29:28;;;;;;;14.05;8.55;;;;;;;2.27;100.00;97400.00;4984936;28;20027;-67
2022/12/15 13:31:54;;;;;;;12.45;9.07;;;;;;;2.31;100.00;97409.06;4983801;28;20028;-68
2022/12/15 13:34:21;;;;;;;15.55;10.02;;;;;;;2.17;100.00;97406.78;4998687;28;20149;-68
2022/12/15 13:36:49;;;;;;;16.63;9.52;;;;;;;2.23;100.00;97415.75;4980333;28;20345;-68
2022/12/15 13:39:17;;;;;;;15.63;9.45;;;;;;;2.18;100.00;97412.75;4980703;28;20037;-69
2022/12/15 13:41:46;;;;;;;15.55;10.55;;;;;;;2.11;100.00;97415.78;4985633;28;20037;-69
2022/12/15 13:44:29;;;;;;;15.80;10.13;;;;;;;2.11;100.00;97414.97;4979956;28;20034;-70
2022/12/15 13:46:57;;;;;;;16.92;10.65;;;;;;;2.04;100.00;97403.56;5014668;28;20034;-70
2022/12/15 13:49:45;;;;;;;17.05;10.88;;;;;;;2.08;100.00;97413.47;4961559;28;20062;-70
2022/12/15 13:52:16;;;;;;;17.77;9.85;;;;;;;2.15;100.00;97418.91;4995113;28;20030;-70
2022/12/15 13:54:53;;;;;;;16.13;11.00;;;;;;;1.84;100.00;97376.91;4999206;28;20026;-69
2022/12/15 13:57:19;;;;;;;16.20;10.68;;;;;;;2.20;100.00;97427.06;4981314;28;20026;-71
2022/12/15 14:00:03;;;;;;;17.70;11.38;;;;;;;2.24;100.00;97428.44;4991416;28;20519;-71
2022/12/15 14:02:30;;;;;;;17.50;11.15;;;;;;;2.26;100.00;97439.41;4994372;28;20034;-70
2022/12/15 14:05:04;;;;;;;16.88;11.15;;;;;;;2.26;100.00;97438.59;4983799;28;20145;-71
2022/12/15 14:07:29;;;;;;;18.40;11.60;;;;;;;1.80;100.00;97360.16;5014797;28;20025;-71
2022/12/15 14:09:55;;;;;;;17.83;12.05;;;;;;;2.38;100.00;97445.31;4995417;28;20040;-72